Terminal Aerodrome Forecast
Issued by NWS

Home | Current Version | Previous Version | Text Only | Print | Product List | Glossary On
Versions: 1 2 3 4 5 6 7 8 9 10 11 12 13 14 15 16
000
FTUS46 KPQR 171152
TAFONP
TAF
KONP 171152Z 1712/1812 14005KT P6SM SCT025 OVC050
     FM171600 16012G18KT P6SM SCT025 OVC045
     FM172000 18033G45KT 2SM RA BR SCT015 BKN025 OVC040
     FM180300 21020G30KT 3SM -RA BR BKN015 OVC025
     FM180500 22020G28KT 5SM -SHRA BR SCT020 BKN040=

USA.gov is the U.S. government's official web portal to all federal, state and local government web resources and services.